Terminal Aerodrome Forecast
Issued by NWS Mt. Holly, NJ

Home | Current Version | Previous Version | Text Only | Print | Product List | Glossary On
Versions: 1 2 3 4 5 6 7 8 9 10 11 12 13 14 15 16 17 18 19 20 21 22 23 24 25 26 27 28 29 30 31 32
000
FTUS41 KPHI 221141
TAFACY
TAF
KACY 221141Z 2212/2312 01009KT P6SM OVC025
     FM221400 04011KT P6SM VCSH OVC015
     FM221800 05010KT 4SM -RA BR OVC010
     FM222200 05012G20KT 2SM -RA BR OVC008
     FM230200 04011KT 6SM BR OVC008
     FM230600 04010KT 6SM BR OVC004=

USA.gov is the U.S. government's official web portal to all federal, state and local government web resources and services.